Time;durP1;ratioP1;P1;durP2;ratioP2;P2;SDS_P1;SDS_P2;PMS_P1;PMS_P2;Temp;Humidity;BMP_temperature;BMP_pressure;BME280_temperature;BME280_humidity;BME280_pressure;Samples;Min_cycle;Max_cycle;Signal;HPM_P1;HPM_P2
2022/03/27 00:00:17;;;;;;;;;;;;;;;;;;4405709;32;20271;-74
2022/03/27 00:02:42;;;;;;;;;;;;;;;;;;4406210;32;19952;-76
2022/03/27 00:05:08;;;;;;;;;;;;;;;;;;4398647;32;19995;-76
2022/03/27 00:07:33;;;;;;;;;;;;;;;;;;4390619;32;19938;-77
2022/03/27 00:09:58;;;;;;;;;;;;;;;;;;4391705;32;19938;-76
2022/03/27 00:12:23;;;;;;;;;;;;;;;;;;4391435;32;20016;-76
2022/03/27 00:14:48;;;;;;;;;;;;;;;;;;4389878;32;19952;-75
2022/03/27 00:17:13;;;;;;;;;;;;;;;;;;4391178;32;19934;-77
2022/03/27 00:19:38;;;;;;;;;;;;;;;;;;4391001;32;19995;-76
2022/03/27 00:22:05;;;;;;;;;;;;;;;;;;4390823;32;19948;-75
2022/03/27 00:24:30;;;;;;;;;;;;;;;;;;4392160;32;20031;-75
2022/03/27 00:26:56;;;;;;;;;;;;;;;;;;4391195;32;19989;-74
2022/03/27 00:29:22;;;;;;;;;;;;;;;;;;4391963;32;19974;-76
2022/03/27 00:31:47;;;;;;;;;;;;;;;;;;4390219;32;19945;-72
2022/03/27 00:34:12;;;;;;;;;;;;;;;;;;4390100;32;19942;-75
2022/03/27 00:36:37;;;;;;;;;;;;;;;;;;4389801;32;19934;-75
2022/03/27 00:39:02;;;;;;;;;;;;;;;;;;4388646;32;19942;-75
2022/03/27 00:41:30;;;;;;;;;;;;;;;;;;4396055;32;19979;-75
2022/03/27 00:43:55;;;;;;;;;;;;;;;;;;4421829;32;19997;-75
2022/03/27 00:46:20;;;;;;;;;;;;;;;;;;4420939;32;19969;-75
2022/03/27 00:48:45;;;;;;;;;;;;;;;;;;4421015;32;19972;-75
2022/03/27 00:51:10;;;;;;;;;;;;;;;;;;4420757;32;19991;-73
2022/03/27 00:53:35;;;;;;;;;;;;;;;;;;4415297;32;20324;-75
2022/03/27 00:56:01;;;;;;;;;;;;;;;;;;4390898;32;19945;-74
2022/03/27 00:58:26;;;;;;;;;;;;;;;;;;4390518;32;20341;-76
2022/03/27 01:00:51;;;;;;;;;;;;;;;;;;4390471;32;19953;-76
2022/03/27 01:03:16;;;;;;;;;;;;;;;;;;4390448;32;19934;-75
2022/03/27 01:05:41;;;;;;;;;;;;;;;;;;4388880;32;19938;-76
2022/03/27 01:08:06;;;;;;;;;;;;;;;;;;4390999;32;19975;-75
2022/03/27 01:10:31;;;;;;;;;;;;;;;;;;4404365;32;19937;-76
2022/03/27 01:12:57;;;;;;;;;;;;;;;;;;4405530;32;19937;-75
2022/03/27 01:15:22;;;;;;;;;;;;;;;;;;4405819;32;19942;-76
2022/03/27 01:17:47;;;;;;;;;;;;;;;;;;4407409;32;20031;-76
2022/03/27 01:20:12;;;;;;;;;;;;;;;;;;4405034;32;19942;-75
2022/03/27 01:22:38;;;;;;;;;;;;;;;;;;4405776;32;19933;-77
2022/03/27 01:25:03;;;;;;;;;;;;;;;;;;4405446;32;20045;-74
2022/03/27 01:27:30;;;;;;;;;;;;;;;;;;4405719;32;19941;-76
2022/03/27 01:29:56;;;;;;;;;;;;;;;;;;4405114;32;20324;-75
2022/03/27 01:32:21;;;;;;;;;;;;;;;;;;4406510;32;19937;-73
2022/03/27 01:34:47;;;;;;;;;;;;;;;;;;4405546;32;20268;-75
2022/03/27 01:37:13;;;;;;;;;;;;;;;;;;4405367;32;20296;-74
2022/03/27 01:39:38;;;;;;;;;;;;;;;;;;4405315;32;19953;-76
2022/03/27 01:42:03;;;;;;;;;;;;;;;;;;4406015;32;19930;-75
2022/03/27 01:44:28;;;;;;;;;;;;;;;;;;4398129;32;19933;-75
2022/03/27 01:46:55;;;;;;;;;;;;;;;;;;4390163;32;19957;-75
2022/03/27 01:49:20;;;;;;;;;;;;;;;;;;4388537;32;20240;-75
2022/03/27 01:51:46;;;;;;;;;;;;;;;;;;4390464;32;19971;-75
2022/03/27 01:54:11;;;;;;;;;;;;;;;;;;4401936;32;19951;-76
2022/03/27 01:56:38;;;;;;;;;;;;;;;;;;4405615;32;19975;-76
2022/03/27 01:59:04;;;;;;;;;;;;;;;;;;4405516;32;19953;-75
2022/03/27 02:01:29;;;;;;;;;;;;;;;;;;4406101;32;20326;-74
2022/03/27 02:03:55;;;;;;;;;;;;;;;;;;4405371;32;20232;-75
2022/03/27 02:06:21;;;;;;;;;;;;;;;;;;4405150;32;19989;-75
2022/03/27 02:08:47;;;;;;;;;;;;;;;;;;4404472;32;19949;-75
2022/03/27 02:11:15;;;;;;;;;;;;;;;;;;4404902;32;19957;-76
2022/03/27 02:13:40;;;;;;;;;;;;;;;;;;4404860;32;20370;-75
2022/03/27 02:16:05;;;;;;;;;;;;;;;;;;4404444;32;20323;-74
2022/03/27 02:18:30;;;;;;;;;;;;;;;;;;4406799;32;19978;-77
2022/03/27 02:20:55;;;;;;;;;;;;;;;;;;4408046;32;19975;-75
2022/03/27 02:23:20;;;;;;;;;;;;;;;;;;4407166;32;19937;-74
2022/03/27 02:25:45;;;;;;;;;;;;;;;;;;4407985;32;20255;-74
2022/03/27 02:28:14;;;;;;;;;;;;;;;;;;4408012;32;20307;-76
2022/03/27 02:30:39;;;;;;;;;;;;;;;;;;4406772;32;19952;-75
2022/03/27 02:33:04;;;;;;;;;;;;;;;;;;4407317;32;19942;-75
2022/03/27 02:35:29;;;;;;;;;;;;;;;;;;4407770;32;19968;-74
2022/03/27 02:37:54;;;;;;;;;;;;;;;;;;4406823;32;19959;-76
2022/03/27 02:40:20;;;;;;;;;;;;;;;;;;4407875;32;20260;-74
2022/03/27 02:42:45;;;;;;;;;;;;;;;;;;4407570;32;19942;-75
2022/03/27 02:45:10;;;;;;;;;;;;;;;;;;4398566;32;19984;-75
2022/03/27 02:47:35;;;;;;;;;;;;;;;;;;4392772;32;20229;-75
2022/03/27 02:50:00;;;;;;;;;;;;;;;;;;4392420;32;20292;-73
2022/03/27 02:52:25;;;;;;;;;;;;;;;;;;4392383;32;19937;-75
2022/03/27 02:54:51;;;;;;;;;;;;;;;;;;4392616;32;19983;-76
2022/03/27 02:57:16;;;;;;;;;;;;;;;;;;4394876;32;19971;-75
2022/03/27 02:59:41;;;;;;;;;;;;;;;;;;4405815;32;19961;-75
2022/03/27 03:02:06;;;;;;;;;;;;;;;;;;4407448;32;19957;-75
2022/03/27 03:04:33;;;;;;;;;;;;;;;;;;4408750;32;19937;-74
2022/03/27 03:06:58;;;;;;;;;;;;;;;;;;4407026;32;19955;-75
2022/03/27 03:09:24;;;;;;;;;;;;;;;;;;4407662;32;19941;-73
2022/03/27 03:11:49;;;;;;;;;;;;;;;;;;4408474;32;19984;-74
2022/03/27 03:14:14;;;;;;;;;;;;;;;;;;4406969;32;19949;-75
2022/03/27 03:16:39;;;;;;;;;;;;;;;;;;4405574;32;19933;-75
2022/03/27 03:19:04;;;;;;;;;;;;;;;;;;4408031;32;19982;-74
2022/03/27 03:21:29;;;;;;;;;;;;;;;;;;4407695;32;19933;-74
2022/03/27 03:23:54;;;;;;;;;;;;;;;;;;4407388;32;19937;-75
2022/03/27 03:26:19;;;;;;;;;;;;;;;;;;4407096;32;19968;-73
2022/03/27 03:28:44;;;;;;;;;;;;;;;;;;4406790;32;19985;-75
2022/03/27 03:31:10;;;;;;;;;;;;;;;;;;4407199;32;19988;-75
2022/03/27 03:33:35;;;;;;;;;;;;;;;;;;4405498;32;20331;-74
2022/03/27 03:36:00;;;;;;;;;;;;;;;;;;4406947;32;20332;-74
2022/03/27 03:38:25;;;;;;;;;;;;;;;;;;4406780;32;19945;-76
2022/03/27 03:40:50;;;;;;;;;;;;;;;;;;4395715;32;19965;-74
2022/03/27 03:43:16;;;;;;;;;;;;;;;;;;4391858;32;19957;-74
2022/03/27 03:45:42;;;;;;;;;;;;;;;;;;4392225;32;19957;-74
2022/03/27 03:48:07;;;;;;;;;;;;;;;;;;4391298;32;19945;-73
2022/03/27 03:50:35;;;;;;;;;;;;;;;;;;4392221;32;19930;-75
2022/03/27 03:53:00;;;;;;;;;;;;;;;;;;4391952;32;19974;-75
2022/03/27 03:55:26;;;;;;;;;;;;;;;;;;4391564;32;19937;-75
2022/03/27 03:57:51;;;;;;;;;;;;;;;;;;4406069;32;19948;-74
2022/03/27 04:00:16;;;;;;;;;;;;;;;;;;4406519;32;19946;-75
2022/03/27 04:02:41;;;;;;;;;;;;;;;;;;4406906;32;19941;-75
2022/03/27 04:05:06;;;;;;;;;;;;;;;;;;4406111;32;19934;-75
2022/03/27 04:07:31;;;;;;;;;;;;;;;;;;4406791;32;19952;-75
2022/03/27 04:09:56;;;;;;;;;;;;;;;;;;4408096;32;19947;-74
2022/03/27 04:12:22;;;;;;;;;;;;;;;;;;4406403;32;19952;-74
2022/03/27 04:14:47;;;;;;;;;;;;;;;;;;4406446;32;19945;-75
2022/03/27 04:17:12;;;;;;;;;;;;;;;;;;4406084;32;19952;-75
2022/03/27 04:19:37;;;;;;;;;;;;;;;;;;4405000;32;19954;-75
2022/03/27 04:22:02;;;;;;;;;;;;;;;;;;4406207;32;19938;-74
2022/03/27 04:24:28;;;;;;;;;;;;;;;;;;4406007;32;19933;-75
2022/03/27 04:26:53;;;;;;;;;;;;;;;;;;4405869;32;20250;-73
2022/03/27 04:29:18;;;;;;;;;;;;;;;;;;4406376;32;19934;-75
2022/03/27 04:31:43;;;;;;;;;;;;;;;;;;4404562;32;19937;-75
2022/03/27 04:34:09;;;;;;;;;;;;;;;;;;4405765;32;20014;-75
2022/03/27 04:36:34;;;;;;;;;;;;;;;;;;4405770;32;20239;-73
2022/03/27 04:38:59;;;;;;;;;;;;;;;;;;4405852;32;19937;-75
2022/03/27 04:41:24;;;;;;;;;;;;;;;;;;4406122;32;19941;-74
2022/03/27 04:43:49;;;;;;;;;;;;;;;;;;4406434;32;20006;-75
2022/03/27 04:46:14;;;;;;;;;;;;;;;;;;4406059;32;19948;-75
2022/03/27 04:48:39;;;;;;;;;;;;;;;;;;4394296;32;20265;-75
2022/03/27 04:51:05;;;;;;;;;;;;;;;;;;4391598;32;19993;-74
2022/03/27 04:53:30;;;;;;;;;;;;;;;;;;4390846;32;20267;-75
2022/03/27 04:55:55;;;;;;;;;;;;;;;;;;4390784;32;19945;-75
2022/03/27 04:58:20;;;;;;;;;;;;;;;;;;4390451;32;20283;-74
2022/03/27 05:00:46;;;;;;;;;;;;;;;;;;4390570;32;20364;-72
2022/03/27 05:03:11;;;;;;;;;;;;;;;;;;4390374;32;20263;-74
2022/03/27 05:05:36;;;;;;;;;;;;;;;;;;4390746;32;19944;-74
2022/03/27 05:08:01;;;;;;;;;;;;;;;;;;4390743;32;19953;-75
2022/03/27 05:10:26;;;;;;;;;;;;;;;;;;4390580;32;20020;-75
2022/03/27 05:12:52;;;;;;;;;;;;;;;;;;4390782;32;20293;-75
2022/03/27 05:15:17;;;;;;;;;;;;;;;;;;4417558;32;19948;-75
2022/03/27 05:17:42;;;;;;;;;;;;;;;;;;4420239;32;20370;-75
2022/03/27 05:20:07;;;;;;;;;;;;;;;;;;4401755;32;19951;-75
2022/03/27 05:22:32;;;;;;;;;;;;;;;;;;4390401;32;19949;-75
2022/03/27 05:24:57;;;;;;;;;;;;;;;;;;4390581;32;19941;-75
2022/03/27 05:27:23;;;;;;;;;;;;;;;;;;4390182;32;19934;-75
2022/03/27 05:29:48;;;;;;;;;;;;;;;;;;4390915;32;20293;-75
2022/03/27 05:32:13;;;;;;;;;;;;;;;;;;4390459;32;20311;-75
2022/03/27 05:34:38;;;;;;;;;;;;;;;;;;4390080;32;19950;-74
2022/03/27 05:37:04;;;;;;;;;;;;;;;;;;4390553;32;20311;-74
2022/03/27 05:39:29;;;;;;;;;;;;;;;;;;4389708;32;19992;-74
2022/03/27 05:41:54;;;;;;;;;;;;;;;;;;4390893;32;20312;-75
2022/03/27 05:44:19;;;;;;;;;;;;;;;;;;4390079;32;20389;-74
2022/03/27 05:46:44;;;;;;;;;;;;;;;;;;4393217;32;19938;-75
2022/03/27 05:49:09;;;;;;;;;;;;;;;;;;4405770;32;19938;-74
2022/03/27 05:51:34;;;;;;;;;;;;;;;;;;4405459;32;20006;-76
2022/03/27 05:54:00;;;;;;;;;;;;;;;;;;4408028;32;20420;-75
2022/03/27 05:56:25;;;;;;;;;;;;;;;;;;4407985;32;19933;-74
2022/03/27 05:58:50;;;;;;;;;;;;;;;;;;4409325;32;20348;-73
2022/03/27 06:01:15;;;;;;;;;;;;;;;;;;4405371;32;19971;-75
2022/03/27 06:03:40;;;;;;;;;;;;;;;;;;4396720;32;20316;-76
2022/03/27 06:06:05;;;;;;;;;;;;;;;;;;4391785;32;19953;-73
2022/03/27 06:08:30;;;;;;;;;;;;;;;;;;4393488;32;19969;-75
2022/03/27 06:10:56;;;;;;;;;;;;;;;;;;4392916;32;19948;-74
2022/03/27 06:13:22;;;;;;;;;;;;;;;;;;4393025;32;20334;-75
2022/03/27 06:15:47;;;;;;;;;;;;;;;;;;4392826;32;20000;-74
2022/03/27 06:18:12;;;;;;;;;;;;;;;;;;4393243;32;19938;-74
2022/03/27 06:20:37;;;;;;;;;;;;;;;;;;4392493;32;20281;-72
2022/03/27 06:23:03;;;;;;;;;;;;;;;;;;4392833;32;19948;-75
2022/03/27 06:25:28;;;;;;;;;;;;;;;;;;4394453;32;19972;-75
2022/03/27 06:27:53;;;;;;;;;;;;;;;;;;4392527;32;19934;-74
2022/03/27 06:30:18;;;;;;;;;;;;;;;;;;4393225;32;19953;-74
2022/03/27 06:32:43;;;;;;;;;;;;;;;;;;4392865;32;19973;-71
2022/03/27 06:35:09;;;;;;;;;;;;;;;;;;4392126;32;19942;-73
2022/03/27 06:37:35;;;;;;;;;;;;;;;;;;4392575;32;20294;-75
2022/03/27 06:40:00;;;;;;;;;;;;;;;;;;4392517;32;20369;-75
2022/03/27 06:42:27;;;;;;;;;;;;;;;;;;4392453;32;19944;-74
2022/03/27 06:44:54;;;;;;;;;;;;;;;;;;4391997;32;20275;-72
2022/03/27 06:47:19;;;;;;;;;;;;;;;;;;4392422;32;19938;-74
2022/03/27 06:49:44;;;;;;;;;;;;;;;;;;4392030;32;20288;-76
2022/03/27 06:52:10;;;;;;;;;;;;;;;;;;4392153;32;20048;-71
2022/03/27 06:54:35;;;;;;;;;;;;;;;;;;4404434;32;19968;-75
2022/03/27 06:57:00;;;;;;;;;;;;;;;;;;4407490;32;19971;-74
2022/03/27 06:59:25;;;;;;;;;;;;;;;;;;4406703;32;19948;-75
2022/03/27 07:04:35;;;;;;;;;;;;;;;;;;4406620;32;19944;-75
2022/03/27 07:07:00;;;;;;;;;;;;;;;;;;4405693;32;19969;-71
2022/03/27 07:09:25;;;;;;;;;;;;;;;;;;4407139;32;19952;-73
2022/03/27 07:11:50;;;;;;;;;;;;;;;;;;4405290;32;19977;-73
2022/03/27 07:14:16;;;;;;;;;;;;;;;;;;4403926;32;19945;-75
2022/03/27 07:16:41;;;;;;;;;;;;;;;;;;4405953;32;19933;-75
2022/03/27 07:19:06;;;;;;;;;;;;;;;;;;4406890;32;20372;-73
2022/03/27 07:21:31;;;;;;;;;;;;;;;;;;4406928;32;19951;-75
2022/03/27 07:23:58;;;;;;;;;;;;;;;;;;4406846;32;19942;-74
2022/03/27 07:26:23;;;;;;;;;;;;;;;;;;4405081;32;19934;-74
2022/03/27 07:28:49;;;;;;;;;;;;;;;;;;4399039;32;20267;-75
2022/03/27 07:31:14;;;;;;;;;;;;;;;;;;4405782;32;19942;-74
2022/03/27 07:33:39;;;;;;;;;;;;;;;;;;4406446;32;20003;-75
2022/03/27 07:36:04;;;;;;;;;;;;;;;;;;4406140;32;19934;-72
2022/03/27 07:38:29;;;;;;;;;;;;;;;;;;4405267;32;19950;-73
2022/03/27 07:40:55;;;;;;;;;;;;;;;;;;4406185;32;19933;-75
2022/03/27 07:43:21;;;;;;;;;;;;;;;;;;4406070;32;20010;-73
2022/03/27 07:45:46;;;;;;;;;;;;;;;;;;4407026;32;19937;-75
2022/03/27 07:48:11;;;;;;;;;;;;;;;;;;4406524;32;19942;-74
2022/03/27 07:50:37;;;;;;;;;;;;;;;;;;4406841;32;19953;-73
2022/03/27 07:53:02;;;;;;;;;;;;;;;;;;4405793;32;19955;-73
2022/03/27 07:55:27;;;;;;;;;;;;;;;;;;4405840;32;19941;-75
2022/03/27 07:57:53;;;;;;;;;;;;;;;;;;4405361;32;19933;-75
2022/03/27 08:00:18;;;;;;;;;;;;;;;;;;4404638;32;20289;-75
2022/03/27 08:02:43;;;;;;;;;;;;;;;;;;4406985;32;19968;-75
2022/03/27 08:05:08;;;;;;;;;;;;;;;;;;4406491;32;19948;-74
2022/03/27 08:07:33;;;;;;;;;;;;;;;;;;4406112;32;19945;-74
2022/03/27 08:09:58;;;;;;;;;;;;;;;;;;4405783;32;19952;-75
2022/03/27 08:12:23;;;;;;;;;;;;;;;;;;4406263;32;19980;-74
2022/03/27 08:14:48;;;;;;;;;;;;;;;;;;4404319;32;19948;-74
2022/03/27 08:17:14;;;;;;;;;;;;;;;;;;4407283;32;20247;-75
2022/03/27 08:19:39;;;;;;;;;;;;;;;;;;4406102;32;19942;-73
2022/03/27 08:22:04;;;;;;;;;;;;;;;;;;4406300;32;20247;-73
2022/03/27 08:24:30;;;;;;;;;;;;;;;;;;4406845;32;19983;-74
2022/03/27 08:27:02;;;;;;;;;;;;;;;;;;4404375;32;20345;-75
2022/03/27 08:29:27;;;;;;;;;;;;;;;;;;4404725;32;20283;-74
2022/03/27 08:31:52;;;;;;;;;;;;;;;;;;4405965;32;19995;-75
2022/03/27 08:34:18;;;;;;;;;;;;;;;;;;4403023;32;19954;-74
2022/03/27 08:36:43;;;;;;;;;;;;;;;;;;4391301;32;19937;-72
2022/03/27 08:39:08;;;;;;;;;;;;;;;;;;4400425;32;19934;-73
2022/03/27 08:41:34;;;;;;;;;;;;;;;;;;4405818;32;19952;-74
2022/03/27 08:43:59;;;;;;;;;;;;;;;;;;4405516;32;19948;-76
2022/03/27 08:46:24;;;;;;;;;;;;;;;;;;4406163;32;19985;-75
2022/03/27 08:48:50;;;;;;;;;;;;;;;;;;4409530;32;20331;-74
2022/03/27 08:51:15;;;;;;;;;;;;;;;;;;4421154;32;19952;-76
2022/03/27 08:53:40;;;;;;;;;;;;;;;;;;4410903;32;20344;-73
2022/03/27 08:56:08;;;;;;;;;;;;;;;;;;4405624;32;19972;-75
2022/03/27 08:58:33;;;;;;;;;;;;;;;;;;4405531;32;19985;-76
2022/03/27 09:00:58;;;;;;;;;;;;;;;;;;4404063;32;19955;-73
2022/03/27 09:03:23;;;;;;;;;;;;;;;;;;4406073;32;19946;-70
2022/03/27 09:05:48;;;;;;;;;;;;;;;;;;4405232;32;19941;-74
2022/03/27 09:08:13;;;;;;;;;;;;;;;;;;4405094;32;19946;-76
2022/03/27 09:10:40;;;;;;;;;;;;;;;;;;4406189;32;19933;-75
2022/03/27 09:13:06;;;;;;;;;;;;;;;;;;4405419;32;19976;-73
2022/03/27 09:15:31;;;;;;;;;;;;;;;;;;4404592;32;19942;-74
2022/03/27 09:17:56;;;;;;;;;;;;;;;;;;4405823;32;19975;-75
2022/03/27 09:20:22;;;;;;;;;;;;;;;;;;4402880;32;19985;-72
2022/03/27 09:23:08;;;;;;;;;;;;;;;;;;4404325;32;19942;-74
2022/03/27 09:25:32;;;;;;;;;;;;;;;;;;4405111;32;20036;-74
2022/03/27 09:27:58;;;;;;;;;;;;;;;;;;4405539;32;20359;-75
2022/03/27 09:30:23;;;;;;;;;;;;;;;;;;4409167;32;19941;-76
2022/03/27 09:32:48;;;;;;;;;;;;;;;;;;4398070;32;20301;-73
2022/03/27 09:35:14;;;;;;;;;;;;;;;;;;4392741;32;19946;-74
2022/03/27 09:37:39;;;;;;;;;;;;;;;;;;4391740;32;19934;-75
2022/03/27 09:40:04;;;;;;;;;;;;;;;;;;4391857;32;19987;-75
2022/03/27 09:42:29;;;;;;;;;;;;;;;;;;4393271;32;19991;-75
2022/03/27 09:44:54;;;;;;;;;;;;;;;;;;4393298;32;20260;-74
2022/03/27 09:47:19;;;;;;;;;;;;;;;;;;4398370;32;19980;-75
2022/03/27 09:49:46;;;;;;;;;;;;;;;;;;4408410;32;19938;-76
2022/03/27 09:52:11;;;;;;;;;;;;;;;;;;4407184;32;19942;-76
2022/03/27 09:54:36;;;;;;;;;;;;;;;;;;4406824;32;20287;-75
2022/03/27 09:57:01;;;;;;;;;;;;;;;;;;4407730;32;19942;-76
2022/03/27 09:59:27;;;;;;;;;;;;;;;;;;4408472;32;19938;-76
2022/03/27 10:01:52;;;;;;;;;;;;;;;;;;4407849;32;19952;-74
2022/03/27 10:04:17;;;;;;;;;;;;;;;;;;4408051;32;19985;-75
2022/03/27 10:06:42;;;;;;;;;;;;;;;;;;4408107;32;20013;-75
2022/03/27 10:09:07;;;;;;;;;;;;;;;;;;4406206;32;19933;-75
2022/03/27 10:11:34;;;;;;;;;;;;;;;;;;4406505;32;20352;-72
2022/03/27 10:13:59;;;;;;;;;;;;;;;;;;4408007;32;19956;-74
2022/03/27 10:16:24;;;;;;;;;;;;;;;;;;4406601;32;19946;-75
2022/03/27 10:18:49;;;;;;;;;;;;;;;;;;4407103;32;20299;-75
2022/03/27 10:21:15;;;;;;;;;;;;;;;;;;4407984;32;20303;-75
2022/03/27 10:23:40;;;;;;;;;;;;;;;;;;4407673;32;20017;-73
2022/03/27 10:26:06;;;;;;;;;;;;;;;;;;4400665;32;19934;-77
2022/03/27 10:28:33;;;;;;;;;;;;;;;;;;4392602;32;19946;-75
2022/03/27 10:30:58;;;;;;;;;;;;;;;;;;4403868;32;19937;-76
2022/03/27 10:33:23;;;;;;;;;;;;;;;;;;4400784;32;19948;-76
2022/03/27 10:35:48;;;;;;;;;;;;;;;;;;4396712;32;20335;-75
2022/03/27 10:38:13;;;;;;;;;;;;;;;;;;4407156;32;19937;-75
2022/03/27 10:40:39;;;;;;;;;;;;;;;;;;4407471;32;19956;-76
2022/03/27 10:43:04;;;;;;;;;;;;;;;;;;4407950;32;20337;-75
2022/03/27 10:45:30;;;;;;;;;;;;;;;;;;4405807;32;19953;-75
2022/03/27 10:47:55;;;;;;;;;;;;;;;;;;4407933;32;19958;-76
2022/03/27 10:50:20;;;;;;;;;;;;;;;;;;4407248;32;19980;-72
2022/03/27 10:52:45;;;;;;;;;;;;;;;;;;4407627;32;19964;-76
2022/03/27 10:55:11;;;;;;;;;;;;;;;;;;4395731;32;19970;-75
2022/03/27 10:57:36;;;;;;;;;;;;;;;;;;4392103;32;19937;-76
2022/03/27 11:00:01;;;;;;;;;;;;;;;;;;4406073;32;20007;-75
2022/03/27 11:02:26;;;;;;;;;;;;;;;;;;4407799;32;19953;-74
2022/03/27 11:04:51;;;;;;;;;;;;;;;;;;4408142;32;19933;-76
2022/03/27 11:07:17;;;;;;;;;;;;;;;;;;4408183;32;19933;-75
2022/03/27 11:09:45;;;;;;;;;;;;;;;;;;4407123;32;19949;-75
2022/03/27 11:12:10;;;;;;;;;;;;;;;;;;4407037;32;19951;-75
2022/03/27 11:14:35;;;;;;;;;;;;;;;;;;4407090;32;19950;-75
2022/03/27 11:17:00;;;;;;;;;;;;;;;;;;4407659;32;19981;-76
2022/03/27 11:19:25;;;;;;;;;;;;;;;;;;4406975;32;19941;-76
2022/03/27 11:21:51;;;;;;;;;;;;;;;;;;4406916;32;20016;-76
2022/03/27 11:24:16;;;;;;;;;;;;;;;;;;4405738;32;19937;-76
2022/03/27 11:26:41;;;;;;;;;;;;;;;;;;4407822;32;19969;-76
2022/03/27 11:29:06;;;;;;;;;;;;;;;;;;4407555;32;19938;-76
2022/03/27 11:31:32;;;;;;;;;;;;;;;;;;4405770;32;19937;-76
2022/03/27 11:33:57;;;;;;;;;;;;;;;;;;4407146;32;19953;-77
2022/03/27 11:36:22;;;;;;;;;;;;;;;;;;4407386;32;20019;-76
2022/03/27 11:38:47;;;;;;;;;;;;;;;;;;4406434;32;19945;-70
2022/03/27 11:41:12;;;;;;;;;;;;;;;;;;4405174;32;19952;-76
2022/03/27 11:43:38;;;;;;;;;;;;;;;;;;4406918;32;19933;-76
2022/03/27 11:46:03;;;;;;;;;;;;;;;;;;4411450;32;19949;-76
2022/03/27 11:48:28;;;;;;;;;;;;;;;;;;4421484;32;19934;-76
2022/03/27 11:50:56;;;;;;;;;;;;;;;;;;4421655;32;19967;-76
2022/03/27 11:53:21;;;;;;;;;;;;;;;;;;4421581;32;20043;-75
2022/03/27 11:55:46;;;;;;;;;;;;;;;;;;4421800;32;19945;-74
2022/03/27 11:58:14;;;;;;;;;;;;;;;;;;4421940;32;20279;-76
2022/03/27 12:00:39;;;;;;;;;;;;;;;;;;4421650;32;19953;-76
2022/03/27 12:03:05;;;;;;;;;;;;;;;;;;4421834;32;20285;-77
2022/03/27 12:05:30;;;;;;;;;;;;;;;;;;4421478;32;19968;-76
2022/03/27 12:07:58;;;;;;;;;;;;;;;;;;4421053;32;19949;-78
2022/03/27 12:10:23;;;;;;;;;;;;;;;;;;4422839;32;19949;-75
2022/03/27 12:12:49;;;;;;;;;;;;;;;;;;4421298;32;19944;-73
2022/03/27 12:15:14;;;;;;;;;;;;;;;;;;4421314;32;19949;-76
2022/03/27 12:17:39;;;;;;;;;;;;;;;;;;4420439;32;20277;-76
2022/03/27 12:20:08;;;;;;;;;;;;;;;;;;4419446;32;19952;-75
2022/03/27 12:22:33;;;;;;;;;;;;;;;;;;4421145;32;19996;-74
2022/03/27 12:24:58;;;;;;;;;;;;;;;;;;4421104;32;19937;-76
2022/03/27 12:30:07;;;;;;;;;;;;;;;;;;4421437;32;19940;-75
2022/03/27 12:32:32;;;;;;;;;;;;;;;;;;4421259;32;19988;-74
2022/03/27 12:35:01;;;;;;;;;;;;;;;;;;4421161;32;20080;-76
2022/03/27 12:37:26;;;;;;;;;;;;;;;;;;4422024;32;19961;-76
2022/03/27 12:39:51;;;;;;;;;;;;;;;;;;4420609;32;20262;-76
2022/03/27 12:42:16;;;;;;;;;;;;;;;;;;4420974;32;19948;-77
2022/03/27 12:44:41;;;;;;;;;;;;;;;;;;4421946;32;19934;-76
2022/03/27 12:47:09;;;;;;;;;;;;;;;;;;4421594;32;19968;-78
2022/03/27 12:49:34;;;;;;;;;;;;;;;;;;4419549;32;19944;-76
2022/03/27 12:52:00;;;;;;;;;;;;;;;;;;4416412;32;19969;-77
2022/03/27 12:54:25;;;;;;;;;;;;;;;;;;4405768;32;19968;-74
2022/03/27 12:56:50;;;;;;;;;;;;;;;;;;4406337;32;20351;-76
2022/03/27 12:59:15;;;;;;;;;;;;;;;;;;4405357;32;20279;-75
2022/03/27 13:01:40;;;;;;;;;;;;;;;;;;4405402;32;19965;-76
2022/03/27 13:04:09;;;;;;;;;;;;;;;;;;4405886;32;19967;-77
2022/03/27 13:06:35;;;;;;;;;;;;;;;;;;4405631;32;19948;-77
2022/03/27 13:09:02;;;;;;;;;;;;;;;;;;4404404;32;19934;-77
2022/03/27 13:11:27;;;;;;;;;;;;;;;;;;4405778;32;19944;-76
2022/03/27 13:13:52;;;;;;;;;;;;;;;;;;4405330;32;19938;-76
2022/03/27 13:16:19;;;;;;;;;;;;;;;;;;4405463;32;19942;-75
2022/03/27 13:18:44;;;;;;;;;;;;;;;;;;4405087;32;19952;-78
2022/03/27 13:21:09;;;;;;;;;;;;;;;;;;4405413;32;19941;-76
2022/03/27 13:23:34;;;;;;;;;;;;;;;;;;4405615;32;19991;-76
2022/03/27 13:25:59;;;;;;;;;;;;;;;;;;4405597;32;19933;-75
2022/03/27 13:28:24;;;;;;;;;;;;;;;;;;4405582;32;19971;-75
2022/03/27 13:30:50;;;;;;;;;;;;;;;;;;4405153;32;20323;-75
2022/03/27 13:33:15;;;;;;;;;;;;;;;;;;4405128;32;19953;-77
2022/03/27 13:35:41;;;;;;;;;;;;;;;;;;4406041;32;19949;-77
2022/03/27 13:38:08;;;;;;;;;;;;;;;;;;4404739;32;20330;-74
2022/03/27 13:43:17;;;;;;;;;;;;;;;;;;4405569;32;19941;-77
2022/03/27 13:45:42;;;;;;;;;;;;;;;;;;4403792;32;20281;-78
2022/03/27 13:48:10;;;;;;;;;;;;;;;;;;4406078;32;19971;-77
2022/03/27 13:50:36;;;;;;;;;;;;;;;;;;4405093;32;19937;-74
2022/03/27 13:53:01;;;;;;;;;;;;;;;;;;4405291;32;20305;-75
2022/03/27 13:55:26;;;;;;;;;;;;;;;;;;4405340;32;19941;-78
2022/03/27 13:57:51;;;;;;;;;;;;;;;;;;4406694;32;20001;-77
2022/03/27 14:00:16;;;;;;;;;;;;;;;;;;4405170;32;19956;-77
2022/03/27 14:02:42;;;;;;;;;;;;;;;;;;4405779;32;19934;-77
2022/03/27 14:05:15;;;;;;;;;;;;;;;;;;4404889;32;20340;-76
2022/03/27 14:07:40;;;;;;;;;;;;;;;;;;4404846;32;19938;-77
2022/03/27 14:10:05;;;;;;;;;;;;;;;;;;4403551;32;19937;-77
2022/03/27 14:12:30;;;;;;;;;;;;;;;;;;4404799;32;19972;-75
2022/03/27 14:14:55;;;;;;;;;;;;;;;;;;4405944;32;19946;-73
2022/03/27 14:17:21;;;;;;;;;;;;;;;;;;4408362;32;19933;-77
2022/03/27 14:19:46;;;;;;;;;;;;;;;;;;4407848;32;19975;-75
2022/03/27 14:22:11;;;;;;;;;;;;;;;;;;4407681;32;19957;-74
2022/03/27 14:24:36;;;;;;;;;;;;;;;;;;4407890;32;19970;-77
2022/03/27 14:27:01;;;;;;;;;;;;;;;;;;4408323;32;19979;-77
2022/03/27 14:29:27;;;;;;;;;;;;;;;;;;4407502;32;19971;-76
2022/03/27 14:31:52;;;;;;;;;;;;;;;;;;4407210;32;19938;-75
2022/03/27 14:34:17;;;;;;;;;;;;;;;;;;4407699;32;20315;-74
2022/03/27 14:36:42;;;;;;;;;;;;;;;;;;4407494;32;19934;-76
2022/03/27 14:39:07;;;;;;;;;;;;;;;;;;4406972;32;19980;-77
2022/03/27 14:41:32;;;;;;;;;;;;;;;;;;4408370;32;19975;-75
2022/03/27 14:43:57;;;;;;;;;;;;;;;;;;4407429;32;19948;-75
2022/03/27 14:46:22;;;;;;;;;;;;;;;;;;4407294;32;19941;-76
2022/03/27 14:48:47;;;;;;;;;;;;;;;;;;4407509;32;19992;-74
2022/03/27 14:51:13;;;;;;;;;;;;;;;;;;4408285;32;19938;-76
2022/03/27 14:56:42;;;;;;;;;;;;;;;;;;4360277;32;19942;-76
2022/03/27 14:59:07;;;;;;;;;;;;;;;;;;4347391;33;19958;-77
2022/03/27 15:01:32;;;;;;;;;;;;;;;;;;4367569;32;19967;-74
2022/03/27 15:03:58;;;;;;;;;;;;;;;;;;4407329;32;19948;-76
2022/03/27 15:06:23;;;;;;;;;;;;;;;;;;4406770;32;19941;-72
2022/03/27 15:08:49;;;;;;;;;;;;;;;;;;4406986;32;20279;-77
2022/03/27 15:11:15;;;;;;;;;;;;;;;;;;4407051;32;19989;-76
2022/03/27 15:13:40;;;;;;;;;;;;;;;;;;4406893;32;19973;-74
2022/03/27 15:16:06;;;;;;;;;;;;;;;;;;4406832;32;19937;-74
2022/03/27 15:18:33;;;;;;;;;;;;;;;;;;4406658;32;19945;-77
2022/03/27 15:20:58;;;;;;;;;;;;;;;;;;4406836;32;19971;-73
2022/03/27 15:23:23;;;;;;;;;;;;;;;;;;4400730;32;19957;-73
2022/03/27 15:25:48;;;;;;;;;;;;;;;;;;4393822;32;19945;-77
2022/03/27 15:28:13;;;;;;;;;;;;;;;;;;4394204;32;20271;-72
2022/03/27 15:30:38;;;;;;;;;;;;;;;;;;4393455;32;19940;-76
2022/03/27 15:33:03;;;;;;;;;;;;;;;;;;4390489;32;19956;-73
2022/03/27 15:35:28;;;;;;;;;;;;;;;;;;4391345;32;20367;-74
2022/03/27 15:37:54;;;;;;;;;;;;;;;;;;4391340;32;20402;-72
2022/03/27 15:40:19;;;;;;;;;;;;;;;;;;4391453;32;19937;-73
2022/03/27 15:42:44;;;;;;;;;;;;;;;;;;4394552;32;19993;-76
2022/03/27 15:45:10;;;;;;;;;;;;;;;;;;4406124;32;19941;-74
2022/03/27 15:47:36;;;;;;;;;;;;;;;;;;4395672;32;19972;-76
2022/03/27 15:50:01;;;;;;;;;;;;;;;;;;4403302;32;20055;-73
2022/03/27 15:52:26;;;;;;;;;;;;;;;;;;4407460;32;19941;-75
2022/03/27 15:54:51;;;;;;;;;;;;;;;;;;4406600;32;20375;-74
2022/03/27 15:57:16;;;;;;;;;;;;;;;;;;4405808;32;20276;-75
2022/03/27 15:59:41;;;;;;;;;;;;;;;;;;4406521;32;19969;-76
2022/03/27 16:02:07;;;;;;;;;;;;;;;;;;4389490;32;19937;-76
2022/03/27 16:04:32;;;;;;;;;;;;;;;;;;4389515;32;19940;-76
2022/03/27 16:06:57;;;;;;;;;;;;;;;;;;4391428;32;19949;-72
2022/03/27 16:09:22;;;;;;;;;;;;;;;;;;4391888;32;19942;-72
2022/03/27 16:11:49;;;;;;;;;;;;;;;;;;4399499;32;19934;-76
2022/03/27 16:14:14;;;;;;;;;;;;;;;;;;4405756;32;19937;-74
2022/03/27 16:16:40;;;;;;;;;;;;;;;;;;4407382;32;19988;-76
2022/03/27 16:19:05;;;;;;;;;;;;;;;;;;4406010;32;19934;-76
2022/03/27 16:21:30;;;;;;;;;;;;;;;;;;4405661;32;19965;-76
2022/03/27 16:23:55;;;;;;;;;;;;;;;;;;4398234;32;19941;-75
2022/03/27 16:26:20;;;;;;;;;;;;;;;;;;4390578;32;19964;-75
2022/03/27 16:28:45;;;;;;;;;;;;;;;;;;4392286;32;20349;-76
2022/03/27 16:31:10;;;;;;;;;;;;;;;;;;4390858;32;19957;-74
2022/03/27 16:33:35;;;;;;;;;;;;;;;;;;4391147;32;19934;-74
2022/03/27 16:36:01;;;;;;;;;;;;;;;;;;4389044;32;19976;-76
2022/03/27 16:38:26;;;;;;;;;;;;;;;;;;4388651;32;20302;-76
2022/03/27 16:40:51;;;;;;;;;;;;;;;;;;4390366;32;20000;-76
2022/03/27 16:43:16;;;;;;;;;;;;;;;;;;4394430;32;20312;-76